Time;durP1;ratioP1;P1;durP2;ratioP2;P2;SDS_P1;SDS_P2;PMS_P1;PMS_P2;Temp;Humidity;BMP_temperature;BMP_pressure;BME280_temperature;BME280_humidity;BME280_pressure;Samples;Min_cycle;Max_cycle;Signal;HPM_P1;HPM_P2
2023/01/18 00:01:02;;;;;;;8.87;4.77;;;;;;;;;;5096092;28;20454;-71
2023/01/18 00:03:32;;;;;;;7.23;5.33;;;;;;;;;;5096149;28;20450;-70
2023/01/18 00:06:01;;;;;;;6.10;5.53;;;;;;;;;;5095954;28;20964;-71
2023/01/18 00:08:29;;;;;;;8.10;5.43;;;;;;;;;;5095991;28;21060;-70
2023/01/18 00:10:56;;;;;;;6.70;4.80;;;;;;;;;;5096011;28;20512;-71
2023/01/18 00:13:23;;;;;;;8.17;4.77;;;;;;;;;;5095941;28;20454;-71
2023/01/18 00:15:50;;;;;;;9.00;5.13;;;;;;;;;;5095449;28;20450;-70
2023/01/18 00:18:17;;;;;;;7.10;5.07;;;;;;;;;;5095579;28;20482;-71
2023/01/18 00:20:44;;;;;;;11.73;5.50;;;;;;;;;;5095642;28;20447;-71
2023/01/18 00:23:12;;;;;;;6.53;4.70;;;;;;;;;;5095446;28;20458;-70
2023/01/18 00:25:39;;;;;;;7.50;5.50;;;;;;;;;;5095344;28;20469;-71
2023/01/18 00:28:06;;;;;;;6.63;5.33;;;;;;;;;;5095542;28;21021;-71
2023/01/18 00:30:33;;;;;;;7.10;5.30;;;;;;;;;;5095456;28;20776;-70
2023/01/18 00:33:01;;;;;;;8.13;5.97;;;;;;;;;;5095685;28;20454;-71
2023/01/18 00:35:28;;;;;;;8.33;6.73;;;;;;;;;;5095473;28;20462;-71
2023/01/18 00:37:55;;;;;;;13.57;6.80;;;;;;;;;;5095427;28;20451;-71
2023/01/18 00:40:27;;;;;;;8.00;5.00;;;;;;;;;;5095204;28;20454;-71
2023/01/18 00:45:39;;;;;;;6.67;5.60;;;;;;;;;;5095097;28;20453;-70
2023/01/18 00:48:07;;;;;;;11.53;5.73;;;;;;;;;;5095202;28;20558;-70
2023/01/18 00:50:34;;;;;;;9.17;6.37;;;;;;;;;;5094933;28;20453;-71
2023/01/18 00:53:01;;;;;;;7.17;5.93;;;;;;;;;;5094870;28;20451;-70
2023/01/18 00:55:29;;;;;;;6.13;5.50;;;;;;;;;;5095084;28;20952;-70
2023/01/18 00:57:56;;;;;;;7.90;6.50;;;;;;;;;;5094734;28;20834;-71
2023/01/18 01:00:25;;;;;;;8.47;5.30;;;;;;;;;;5095054;28;20900;-71
2023/01/18 01:02:53;;;;;;;5.67;5.17;;;;;;;;;;5094983;28;20454;-71
2023/01/18 01:08:06;;;;;;;8.53;5.97;;;;;;;;;;5094544;28;20469;-71
2023/01/18 01:10:35;;;;;;;6.87;5.90;;;;;;;;;;5094861;28;20932;-71
2023/01/18 01:26:47;;;;;;;9.90;7.50;;;;;;;;;;5094265;28;20465;-71
2023/01/18 01:29:14;;;;;;;9.30;5.73;;;;;;;;;;5094153;28;20475;-71
2023/01/18 01:31:41;;;;;;;5.83;5.23;;;;;;;;;;5093885;28;20451;-71
2023/01/18 01:34:08;;;;;;;8.33;5.90;;;;;;;;;;5094145;28;20442;-71
2023/01/18 01:36:35;;;;;;;5.90;5.07;;;;;;;;;;5094085;28;20451;-71
2023/01/18 01:39:03;;;;;;;7.50;6.33;;;;;;;;;;5094319;28;20823;-71
2023/01/18 01:41:31;;;;;;;6.77;6.10;;;;;;;;;;5093862;28;20446;-71
2023/01/18 01:43:59;;;;;;;7.37;5.83;;;;;;;;;;5093882;28;20463;-71
2023/01/18 01:46:33;;;;;;;11.67;5.97;;;;;;;;;;5093757;28;20453;-71
2023/01/18 01:49:05;;;;;;;8.07;6.90;;;;;;;;;;5094050;28;20482;-71
2023/01/18 01:51:33;;;;;;;12.07;6.63;;;;;;;;;;5093760;28;20435;-71
2023/01/18 01:54:03;;;;;;;11.80;7.43;;;;;;;;;;5093909;28;20478;-71
2023/01/18 01:56:30;;;;;;;7.13;5.90;;;;;;;;;;5093371;28;20477;-71
2023/01/18 01:58:59;;;;;;;8.93;5.83;;;;;;;;;;5093884;28;20873;-71
2023/01/18 02:01:28;;;;;;;9.63;6.03;;;;;;;;;;5093641;28;20459;-71
2023/01/18 02:03:56;;;;;;;6.20;5.07;;;;;;;;;;5093712;28;20462;-70
2023/01/18 02:06:30;;;;;;;5.80;4.30;;;;;;;;;;5093484;28;20458;-71
2023/01/18 02:08:57;;;;;;;6.43;4.90;;;;;;;;;;5093752;28;20501;-70
2023/01/18 02:11:24;;;;;;;7.93;5.23;;;;;;;;;;5093729;28;20450;-71
2023/01/18 02:13:51;;;;;;;10.07;5.40;;;;;;;;;;5093580;28;20447;-71
2023/01/18 02:16:20;;;;;;;8.20;5.83;;;;;;;;;;5093290;28;20463;-70
2023/01/18 02:18:55;;;;;;;11.20;5.30;;;;;;;;;;5093638;28;20858;-70
2023/01/18 02:21:26;;;;;;;7.57;5.03;;;;;;;;;;5093637;28;20435;-71
2023/01/18 02:24:13;;;;;;;6.63;4.60;;;;;;;;;;5093483;28;20435;-71
2023/01/18 02:27:04;;;;;;;8.57;5.23;;;;;;;;;;5093437;28;20481;-70
2023/01/18 02:29:41;;;;;;;7.13;4.97;;;;;;;;;;5077771;28;20513;-71
2023/01/18 02:32:18;;;;;;;6.03;4.50;;;;;;;;;;5093335;28;20835;-70
2023/01/18 02:34:48;;;;;;;7.73;4.77;;;;;;;;;;5093083;28;20431;-71
2023/01/18 02:37:19;;;;;;;7.03;5.33;;;;;;;;;;5093125;28;20431;-71
2023/01/18 02:39:52;;;;;;;7.20;4.43;;;;;;;;;;5093541;28;20805;-70
2023/01/18 02:47:55;;;;;;;7.80;5.10;;;;;;;;;;5092980;28;20470;-71
2023/01/18 02:50:27;;;;;;;9.80;5.20;;;;;;;;;;5092981;28;20446;-71
2023/01/18 02:52:54;;;;;;;6.17;4.40;;;;;;;;;;5093201;28;20940;-71
2023/01/18 02:55:36;;;;;;;6.80;4.67;;;;;;;;;;5093201;28;20909;-71
2023/01/18 02:58:05;;;;;;;6.97;5.30;;;;;;;;;;5090595;28;20455;-70
2023/01/18 03:00:35;;;;;;;10.60;4.80;;;;;;;;;;5093228;28;20438;-70
2023/01/18 03:03:04;;;;;;;6.00;4.10;;;;;;;;;;5093183;28;20435;-70
2023/01/18 03:05:31;;;;;;;6.70;4.40;;;;;;;;;;5093112;28;20526;-70
2023/01/18 03:08:04;;;;;;;7.83;4.17;;;;;;;;;;5094438;28;20493;-70
2023/01/18 03:10:32;;;;;;;5.70;4.17;;;;;;;;;;5096853;28;20439;-71
2023/01/18 03:13:01;;;;;;;6.13;4.37;;;;;;;;;;5097197;28;20454;-71
2023/01/18 03:15:30;;;;;;;5.87;4.90;;;;;;;;;;5097110;28;20454;-71
2023/01/18 03:18:00;;;;;;;6.30;4.30;;;;;;;;;;5096965;28;20447;-71
2023/01/18 03:20:30;;;;;;;5.63;4.60;;;;;;;;;;5097137;28;20903;-71
2023/01/18 03:25:46;;;;;;;8.20;5.50;;;;;;;;;;5096649;28;20410;-71
2023/01/18 03:33:50;;;;;;;6.00;4.73;;;;;;;;;;5096626;28;20406;-71
2023/01/18 03:36:20;;;;;;;7.03;4.80;;;;;;;;;;5096881;28;20926;-71
2023/01/18 03:38:48;;;;;;;8.10;5.63;;;;;;;;;;5096497;28;20829;-71
2023/01/18 03:41:17;;;;;;;8.90;5.90;;;;;;;;;;5096683;28;20454;-71
2023/01/18 03:43:45;;;;;;;6.50;5.80;;;;;;;;;;5096164;28;20911;-70
2023/01/18 03:46:13;;;;;;;7.23;6.47;;;;;;;;;;5096159;28;20450;-70
2023/01/18 03:48:40;;;;;;;6.07;5.03;;;;;;;;;;5096024;28;20490;-71
2023/01/18 03:51:14;;;;;;;12.80;6.60;;;;;;;;;;5096401;28;20943;-70
2023/01/18 03:53:44;;;;;;;12.50;7.73;;;;;;;;;;5096414;28;20802;-70
2023/01/18 03:56:14;;;;;;;16.07;7.47;;;;;;;;;;5096263;28;20454;-70
2023/01/18 03:58:42;;;;;;;7.57;5.30;;;;;;;;;;5096399;28;20478;-70
2023/01/18 04:01:09;;;;;;;8.57;5.90;;;;;;;;;;5096205;28;20450;-70
2023/01/18 04:03:36;;;;;;;11.93;7.07;;;;;;;;;;5096029;28;20477;-71
2023/01/18 04:06:04;;;;;;;10.13;6.60;;;;;;;;;;5096106;28;20866;-71
2023/01/18 04:08:33;;;;;;;10.93;8.10;;;;;;;;;;5095940;28;20490;-71
2023/01/18 04:11:00;;;;;;;17.00;8.63;;;;;;;;;;5095975;28;20483;-71
2023/01/18 04:13:27;;;;;;;12.03;7.30;;;;;;;;;;5096046;28;20454;-70
2023/01/18 04:15:54;;;;;;;12.63;6.77;;;;;;;;;;5095897;28;20451;-71
2023/01/18 04:18:21;;;;;;;10.07;7.00;;;;;;;;;;5095163;28;20474;-70
2023/01/18 04:20:48;;;;;;;10.70;6.50;;;;;;;;;;5095535;28;20461;-70
2023/01/18 04:23:15;;;;;;;11.93;6.23;;;;;;;;;;5095744;28;20927;-70
2023/01/18 04:25:48;;;;;;;7.50;5.30;;;;;;;;;;5095585;28;20450;-71
2023/01/18 04:28:16;;;;;;;7.90;5.27;;;;;;;;;;5095693;28;20928;-71
2023/01/18 04:30:43;;;;;;;8.37;6.13;;;;;;;;;;5095385;28;20943;-71
2023/01/18 04:33:10;;;;;;;11.33;5.87;;;;;;;;;;5095667;28;20435;-71
2023/01/18 04:35:37;;;;;;;6.77;5.80;;;;;;;;;;5095489;28;20442;-71
2023/01/18 04:38:04;;;;;;;8.23;4.87;;;;;;;;;;5095061;28;20457;-71
2023/01/18 04:40:31;;;;;;;10.53;5.27;;;;;;;;;;5095477;28;20529;-71
2023/01/18 04:42:59;;;;;;;8.27;5.80;;;;;;;;;;5095127;28;20458;-71
2023/01/18 04:45:27;;;;;;;8.20;6.33;;;;;;;;;;5095068;28;20462;-71
2023/01/18 04:47:54;;;;;;;7.00;4.80;;;;;;;;;;5095208;28;20963;-70
2023/01/18 04:50:21;;;;;;;7.63;5.60;;;;;;;;;;5095285;28;20811;-70
2023/01/18 04:52:48;;;;;;;7.53;5.73;;;;;;;;;;5095232;28;20821;-71
2023/01/18 04:55:15;;;;;;;9.03;6.60;;;;;;;;;;5095172;28;20525;-71
2023/01/18 04:57:42;;;;;;;18.67;9.43;;;;;;;;;;5095078;28;20457;-71
2023/01/18 05:00:12;;;;;;;18.90;9.53;;;;;;;;;;5094799;28;20477;-71
2023/01/18 05:02:39;;;;;;;9.87;7.00;;;;;;;;;;5095074;28;20455;-71
2023/01/18 05:05:08;;;;;;;10.20;7.10;;;;;;;;;;5094734;28;20458;-71
2023/01/18 05:07:35;;;;;;;8.87;6.80;;;;;;;;;;5094559;28;20560;-70
2023/01/18 05:10:02;;;;;;;13.40;8.60;;;;;;;;;;5094494;28;20463;-70
2023/01/18 05:12:29;;;;;;;9.97;7.00;;;;;;;;;;5094793;28;20471;-71
2023/01/18 05:14:56;;;;;;;7.90;5.50;;;;;;;;;;5096111;28;20431;-71
2023/01/18 05:17:26;;;;;;;7.03;5.10;;;;;;;;;;5095523;28;20458;-71
2023/01/18 05:19:54;;;;;;;7.57;5.27;;;;;;;;;;5095026;28;20839;-71
2023/01/18 05:22:21;;;;;;;17.87;10.10;;;;;;;;;;5095310;28;20508;-71
2023/01/18 05:24:49;;;;;;;10.60;6.23;;;;;;;;;;5094396;28;20862;-71
2023/01/18 05:27:16;;;;;;;12.67;6.33;;;;;;;;;;5094536;28;20455;-71
2023/01/18 05:29:43;;;;;;;7.27;5.20;;;;;;;;;;5093808;28;20993;-71
2023/01/18 05:32:11;;;;;;;7.30;5.07;;;;;;;;;;5093805;28;20922;-71
2023/01/18 05:34:39;;;;;;;7.37;4.73;;;;;;;;;;5094344;28;20431;-71
2023/01/18 05:37:07;;;;;;;5.87;4.97;;;;;;;;;;5094382;28;20446;-71
2023/01/18 05:39:34;;;;;;;14.60;9.63;;;;;;;;;;5094253;28;20462;-71
2023/01/18 05:42:01;;;;;;;9.70;7.30;;;;;;;;;;5093893;28;20454;-71
2023/01/18 05:44:28;;;;;;;9.90;6.50;;;;;;;;;;5093795;28;20557;-70
2023/01/18 05:46:55;;;;;;;9.63;7.40;;;;;;;;;;5094209;28;20450;-70
2023/01/18 05:49:23;;;;;;;14.53;8.60;;;;;;;;;;5094029;28;20493;-70
2023/01/18 05:51:51;;;;;;;17.43;10.70;;;;;;;;;;5094104;28;20450;-70
2023/01/18 05:54:18;;;;;;;19.33;10.37;;;;;;;;;;5094066;28;20878;-70
2023/01/18 05:56:45;;;;;;;19.13;11.80;;;;;;;;;;5093736;28;20492;-70
2023/01/18 05:59:14;;;;;;;14.60;9.80;;;;;;;;;;5093832;28;20969;-70
2023/01/18 06:01:41;;;;;;;15.40;9.03;;;;;;;;;;5093602;28;20466;-70
2023/01/18 06:04:09;;;;;;;28.40;17.17;;;;;;;;;;5093561;28;20454;-70
2023/01/18 06:06:36;;;;;;;21.80;13.73;;;;;;;;;;5093846;28;20461;-70
2023/01/18 06:09:05;;;;;;;23.37;14.20;;;;;;;;;;5093644;28;20501;-70
2023/01/18 06:11:32;;;;;;;15.93;11.43;;;;;;;;;;5093810;28;20541;-70
2023/01/18 06:13:59;;;;;;;14.70;8.90;;;;;;;;;;5093615;28;20514;-70
2023/01/18 06:16:26;;;;;;;15.47;10.43;;;;;;;;;;5093646;28;20450;-70
2023/01/18 06:18:53;;;;;;;13.80;9.03;;;;;;;;;;5093542;28;20469;-70
2023/01/18 06:21:20;;;;;;;17.77;10.60;;;;;;;;;;5093616;28;20459;-71
2023/01/18 06:23:47;;;;;;;17.93;11.87;;;;;;;;;;5093462;28;20461;-70
2023/01/18 06:26:16;;;;;;;14.83;11.10;;;;;;;;;;5093519;28;20463;-70
2023/01/18 06:28:43;;;;;;;15.50;10.00;;;;;;;;;;5093040;28;20490;-71
2023/01/18 06:31:10;;;;;;;11.40;8.30;;;;;;;;;;5092942;28;20451;-71
2023/01/18 06:33:37;;;;;;;11.37;8.27;;;;;;;;;;5093036;28;20431;-70
2023/01/18 06:36:05;;;;;;;15.80;9.07;;;;;;;;;;5093331;28;20458;-71
2023/01/18 06:38:32;;;;;;;14.47;9.33;;;;;;;;;;5093046;28;20507;-70
2023/01/18 06:40:59;;;;;;;20.50;12.13;;;;;;;;;;5093206;28;20541;-71
2023/01/18 06:43:28;;;;;;;10.03;8.40;;;;;;;;;;5092689;28;20476;-71
2023/01/18 06:45:55;;;;;;;10.97;7.60;;;;;;;;;;5092976;28;20451;-71
2023/01/18 06:48:22;;;;;;;11.30;8.37;;;;;;;;;;5093130;28;20496;-71
2023/01/18 06:50:51;;;;;;;6.97;6.27;;;;;;;;;;5093587;28;20450;-70
2023/01/18 06:53:18;;;;;;;8.40;6.40;;;;;;;;;;5093254;28;20578;-71
2023/01/18 06:55:52;;;;;;;10.93;6.50;;;;;;;;;;5093208;28;20450;-70
2023/01/18 06:58:19;;;;;;;10.30;7.20;;;;;;;;;;5093171;28;20833;-70
2023/01/18 07:00:48;;;;;;;15.07;10.50;;;;;;;;;;5093132;28;20447;-70
2023/01/18 07:03:15;;;;;;;15.30;9.37;;;;;;;;;;5092845;28;20443;-70
2023/01/18 07:05:44;;;;;;;11.07;7.30;;;;;;;;;;5093007;28;20939;-71
2023/01/18 07:08:11;;;;;;;11.17;6.90;;;;;;;;;;5093019;28;20555;-70
2023/01/18 07:10:38;;;;;;;11.23;6.83;;;;;;;;;;5093162;28;20435;-71
2023/01/18 07:13:05;;;;;;;10.10;7.60;;;;;;;;;;5093041;28;20461;-70
2023/01/18 07:15:32;;;;;;;45.47;20.60;;;;;;;;;;5088464;28;20455;-70
2023/01/18 07:18:01;;;;;;;355.10;128.00;;;;;;;;;;5093084;28;20434;-70
2023/01/18 07:20:28;;;;;;;215.13;80.10;;;;;;;;;;5092972;28;20454;-70
2023/01/18 07:22:55;;;;;;;181.47;66.50;;;;;;;;;;5093016;28;20443;-70
2023/01/18 07:25:22;;;;;;;79.80;34.87;;;;;;;;;;5092959;28;20450;-70
2023/01/18 07:27:49;;;;;;;43.03;20.13;;;;;;;;;;5092841;28;20451;-70
2023/01/18 07:30:17;;;;;;;25.80;11.63;;;;;;;;;;5092901;28;21007;-70
2023/01/18 07:32:48;;;;;;;14.57;8.97;;;;;;;;;;5092581;28;20446;-70
2023/01/18 07:35:18;;;;;;;27.90;13.10;;;;;;;;;;5092884;28;20920;-70
2023/01/18 07:37:48;;;;;;;69.53;26.63;;;;;;;;;;5092925;28;20488;-70
2023/01/18 07:40:15;;;;;;;72.27;28.13;;;;;;;;;;5092808;28;20454;-70
2023/01/18 07:42:42;;;;;;;31.77;15.27;;;;;;;;;;5092635;28;20466;-70
2023/01/18 07:45:10;;;;;;;14.87;8.63;;;;;;;;;;5092836;28;20444;-70
2023/01/18 07:47:38;;;;;;;11.50;8.10;;;;;;;;;;5092876;28;20806;-71
2023/01/18 07:50:05;;;;;;;9.70;7.07;;;;;;;;;;5092673;28;20525;-70
2023/01/18 07:52:34;;;;;;;12.07;7.57;;;;;;;;;;5092755;28;20823;-71
2023/01/18 07:55:01;;;;;;;16.87;10.33;;;;;;;;;;5095507;28;20943;-70
2023/01/18 07:57:28;;;;;;;27.63;17.40;;;;;;;;;;5096380;28;20454;-70
2023/01/18 07:59:55;;;;;;;22.70;12.23;;;;;;;;;;5095826;28;20463;-70
2023/01/18 08:02:23;;;;;;;29.07;11.83;;;;;;;;;;5096268;28;20459;-70
2023/01/18 08:04:50;;;;;;;23.87;12.00;;;;;;;;;;5096161;28;20446;-70
2023/01/18 08:07:17;;;;;;;26.80;17.20;;;;;;;;;;5096218;28;20840;-71
2023/01/18 08:09:46;;;;;;;44.40;23.30;;;;;;;;;;5095490;28;20560;-70
2023/01/18 08:12:16;;;;;;;34.50;16.60;;;;;;;;;;5095590;28;20454;-70
2023/01/18 08:14:43;;;;;;;30.07;15.37;;;;;;;;;;5096001;28;20800;-70
2023/01/18 08:17:11;;;;;;;12.53;7.87;;;;;;;;;;5095986;28;20454;-70
2023/01/18 08:19:38;;;;;;;10.77;7.90;;;;;;;;;;5095901;28;20473;-70
2023/01/18 08:22:05;;;;;;;22.57;11.37;;;;;;;;;;5095505;28;20450;-70
2023/01/18 08:24:33;;;;;;;17.90;8.73;;;;;;;;;;5095566;28;20469;-71
2023/01/18 08:27:01;;;;;;;9.50;5.97;;;;;;;;;;5095557;28;20458;-71
2023/01/18 08:29:28;;;;;;;10.50;6.10;;;;;;;;;;5095661;28;20854;-71
2023/01/18 08:31:55;;;;;;;8.60;6.50;;;;;;;;;;5095797;28;20462;-71
2023/01/18 08:34:22;;;;;;;13.47;6.70;;;;;;;;;;5095673;28;20450;-70
2023/01/18 08:36:49;;;;;;;19.27;9.70;;;;;;;;;;5095390;28;20450;-70
2023/01/18 08:39:17;;;;;;;13.87;8.80;;;;;;;;;;5095528;28;20463;-71
2023/01/18 08:41:45;;;;;;;7.87;5.80;;;;;;;;;;5095500;28;20950;-70
2023/01/18 08:44:13;;;;;;;6.83;4.80;;;;;;;;;;5095201;28;20506;-71
2023/01/18 08:46:41;;;;;;;8.93;5.27;;;;;;;;;;5095031;28;20447;-71
2023/01/18 08:49:09;;;;;;;7.97;5.83;;;;;;;;;;5094133;28;21002;-70
2023/01/18 08:51:36;;;;;;;9.83;6.07;;;;;;;;;;5095106;28;20450;-70
2023/01/18 08:54:05;;;;;;;6.63;5.60;;;;;;;;;;5095003;28;20451;-71
2023/01/18 08:56:32;;;;;;;11.93;6.60;;;;;;;;;;5095000;28;20458;-70
2023/01/18 08:58:59;;;;;;;7.80;6.60;;;;;;;;;;5095203;28;20467;-71
2023/01/18 09:01:28;;;;;;;8.23;5.60;;;;;;;;;;5095178;28;20458;-70
2023/01/18 09:03:56;;;;;;;6.30;5.60;;;;;;;;;;5094797;28;20443;-70
2023/01/18 09:06:24;;;;;;;6.50;5.40;;;;;;;;;;5095062;28;20459;-71
2023/01/18 09:08:51;;;;;;;7.57;6.03;;;;;;;;;;5094546;28;20483;-71
2023/01/18 09:11:19;;;;;;;9.40;6.37;;;;;;;;;;5094973;28;20545;-71
2023/01/18 09:13:47;;;;;;;9.90;7.37;;;;;;;;;;5094973;28;20804;-71
2023/01/18 09:16:14;;;;;;;6.70;5.30;;;;;;;;;;5094819;28;20815;-71
2023/01/18 09:18:42;;;;;;;11.37;6.60;;;;;;;;;;5094822;28;20877;-70
2023/01/18 09:21:12;;;;;;;14.00;5.77;;;;;;;;;;5094809;28;20843;-71
2023/01/18 09:23:40;;;;;;;8.67;4.50;;;;;;;;;;5094725;28;20966;-71
2023/01/18 09:26:07;;;;;;;6.17;4.40;;;;;;;;;;5094657;28;20450;-71
2023/01/18 09:28:35;;;;;;;9.90;5.40;;;;;;;;;;5094402;28;20470;-71
2023/01/18 09:31:02;;;;;;;10.97;8.17;;;;;;;;;;5094592;28;20451;-71
2023/01/18 09:33:30;;;;;;;11.47;8.00;;;;;;;;;;5094636;28;20802;-71
2023/01/18 09:36:02;;;;;;;5.93;4.30;;;;;;;;;;5094467;28;20457;-71
2023/01/18 09:38:30;;;;;;;3.77;3.33;;;;;;;;;;5094166;28;20473;-71
2023/01/18 09:40:57;;;;;;;5.23;3.80;;;;;;;;;;5094441;28;20520;-71
2023/01/18 09:43:26;;;;;;;5.80;3.50;;;;;;;;;;5094136;28;20838;-71
2023/01/18 09:45:54;;;;;;;7.90;3.87;;;;;;;;;;5094321;28;20927;-71
2023/01/18 09:48:27;;;;;;;4.83;3.63;;;;;;;;;;5094180;28;20901;-71
2023/01/18 09:50:55;;;;;;;4.67;3.23;;;;;;;;;;5093824;28;20589;-71
2023/01/18 09:53:29;;;;;;;4.70;3.13;;;;;;;;;;5094161;28;20823;-71
2023/01/18 09:56:01;;;;;;;4.37;2.80;;;;;;;;;;5093847;28;20435;-71
2023/01/18 09:58:40;;;;;;;3.50;2.80;;;;;;;;;;5093230;28;20490;-71
2023/01/18 10:01:10;;;;;;;4.17;3.27;;;;;;;;;;5094024;28;20442;-71
2023/01/18 10:03:45;;;;;;;3.43;3.13;;;;;;;;;;5093408;28;20848;-71
2023/01/18 10:06:14;;;;;;;5.10;4.30;;;;;;;;;;5093958;28;20445;-71
2023/01/18 10:08:47;;;;;;;7.37;5.50;;;;;;;;;;5093453;28;20474;-71
2023/01/18 10:11:20;;;;;;;10.63;4.27;;;;;;;;;;5093864;28;20431;-71
2023/01/18 10:13:50;;;;;;;8.77;4.87;;;;;;;;;;5093861;28;20806;-71
2023/01/18 10:16:19;;;;;;;7.00;3.73;;;;;;;;;;5093470;28;20489;-71
2023/01/18 10:18:47;;;;;;;5.63;3.47;;;;;;;;;;5093079;28;20476;-69
2023/01/18 10:21:19;;;;;;;5.37;3.10;;;;;;;;;;5091947;28;20898;-71
2023/01/18 10:23:48;;;;;;;8.03;2.53;;;;;;;;;;5091846;28;20489;-71
2023/01/18 10:26:19;;;;;;;6.67;2.83;;;;;;;;;;5091951;28;20454;-71
2023/01/18 10:28:50;;;;;;;3.27;2.63;;;;;;;;;;5092050;28;20474;-71
2023/01/18 10:31:35;;;;;;;4.10;3.43;;;;;;;;;;5092373;28;20423;-71
2023/01/18 10:34:03;;;;;;;4.40;3.10;;;;;;;;;;5092349;28;20435;-71
2023/01/18 10:36:32;;;;;;;3.70;2.03;;;;;;;;;;5092035;28;20823;-71
2023/01/18 10:39:01;;;;;;;3.80;2.27;;;;;;;;;;5092202;28;20473;-71
2023/01/18 10:41:32;;;;;;;3.70;2.60;;;;;;;;;;5092487;28;20455;-71
2023/01/18 10:43:59;;;;;;;3.87;2.80;;;;;;;;;;5092438;28;20461;-71
2023/01/18 10:46:26;;;;;;;2.80;2.30;;;;;;;;;;5092127;28;20458;-71
2023/01/18 10:48:56;;;;;;;3.07;2.77;;;;;;;;;;5091925;28;21034;-71
2023/01/18 10:51:25;;;;;;;3.53;3.20;;;;;;;;;;5092103;28;20466;-71
2023/01/18 10:53:52;;;;;;;4.13;3.07;;;;;;;;;;5092079;28;20462;-71
2023/01/18 10:56:23;;;;;;;3.50;2.73;;;;;;;;;;5091982;28;20451;-71
2023/01/18 10:58:53;;;;;;;3.10;2.67;;;;;;;;;;5091717;28;20528;-71
2023/01/18 11:01:22;;;;;;;4.40;3.33;;;;;;;;;;5091986;28;20415;-71
2023/01/18 11:03:50;;;;;;;5.03;3.53;;;;;;;;;;5091938;28;20450;-71
2023/01/18 11:06:19;;;;;;;7.57;5.07;;;;;;;;;;5091832;28;20863;-71
2023/01/18 11:08:47;;;;;;;8.23;5.10;;;;;;;;;;5091784;28;20534;-71
2023/01/18 11:11:18;;;;;;;7.63;4.13;;;;;;;;;;5091709;28;20862;-71
2023/01/18 11:13:47;;;;;;;5.53;3.30;;;;;;;;;;5091745;28;20835;-71
2023/01/18 11:16:16;;;;;;;5.50;3.80;;;;;;;;;;5091546;28;20450;-71
2023/01/18 11:18:58;;;;;;;2.80;2.53;;;;;;;;;;5091836;28;20945;-71
2023/01/18 11:21:28;;;;;;;5.10;3.20;;;;;;;;;;5091829;28;20468;-71
2023/01/18 11:23:55;;;;;;;3.63;2.70;;;;;;;;;;5091873;28;20918;-71
2023/01/18 11:26:24;;;;;;;3.10;2.80;;;;;;;;;;5091748;28;20431;-71
2023/01/18 11:28:57;;;;;;;2.87;2.30;;;;;;;;;;5092888;28;21040;-71
2023/01/18 11:31:24;;;;;;;3.27;2.60;;;;;;;;;;5095519;28;20978;-71
2023/01/18 11:33:53;;;;;;;3.90;3.07;;;;;;;;;;5095631;28;20430;-71
2023/01/18 11:36:21;;;;;;;3.73;2.17;;;;;;;;;;5095562;28;20930;-71
2023/01/18 11:38:48;;;;;;;2.70;1.50;;;;;;;;;;5095385;28;20473;-72
2023/01/18 11:41:17;;;;;;;2.57;2.00;;;;;;;;;;5095212;28;20454;-71
2023/01/18 11:44:04;;;;;;;2.17;1.97;;;;;;;;;;5095060;28;20473;-72
2023/01/18 11:46:37;;;;;;;2.93;2.30;;;;;;;;;;5090052;28;20459;-72
2023/01/18 11:49:11;;;;;;;3.37;1.87;;;;;;;;;;5095161;28;20519;-71
2023/01/18 11:51:40;;;;;;;3.87;2.10;;;;;;;;;;5095283;28;20831;-71
2023/01/18 11:54:18;;;;;;;2.97;2.30;;;;;;;;;;5095161;28;20506;-71
2023/01/18 11:56:48;;;;;;;5.00;2.90;;;;;;;;;;5094723;28;20466;-71
2023/01/18 11:59:16;;;;;;;3.80;2.50;;;;;;;;;;5094870;28;20837;-71
2023/01/18 12:02:00;;;;;;;3.00;2.50;;;;;;;;;;5095092;28;20450;-71
2023/01/18 12:04:33;;;;;;;4.17;2.80;;;;;;;;;;5095032;28;20445;-71
2023/01/18 12:07:06;;;;;;;4.93;2.70;;;;;;;;;;5095073;28;20431;-71
2023/01/18 12:09:36;;;;;;;4.10;2.00;;;;;;;;;;5094701;28;20477;-71
2023/01/18 12:12:17;;;;;;;3.57;2.50;;;;;;;;;;5094911;28;20435;-71
2023/01/18 12:14:48;;;;;;;3.77;2.37;;;;;;;;;;5094926;28;20866;-74
2023/01/18 12:17:24;;;;;;;6.03;3.13;;;;;;;;;;5094773;28;20974;-71
2023/01/18 12:19:59;;;;;;;3.50;2.20;;;;;;;;;;5094849;28;20478;-71
2023/01/18 12:22:43;;;;;;;4.70;2.37;;;;;;;;;;5094592;28;20454;-71
2023/01/18 12:25:19;;;;;;;3.20;2.43;;;;;;;;;;5094652;28;20442;-71
2023/01/18 12:27:51;;;;;;;2.70;2.20;;;;;;;;;;5094555;28;20437;-71
2023/01/18 12:30:26;;;;;;;3.33;2.37;;;;;;;;;;5094470;28;20475;-70
2023/01/18 12:33:03;;;;;;;5.13;2.63;;;;;;;;;;5094130;28;20450;-70
2023/01/18 12:35:39;;;;;;;3.00;2.10;;;;;;;;;;5094254;28;20435;-71
2023/01/18 12:38:13;;;;;;;5.93;3.37;;;;;;;;;;5094234;28;20549;-71
2023/01/18 12:40:49;;;;;;;5.10;3.93;;;;;;;;;;5094762;28;20431;-71
2023/01/18 12:43:23;;;;;;;5.33;3.87;;;;;;;;;;5094775;28;20551;-70
2023/01/18 12:45:54;;;;;;;6.93;3.30;;;;;;;;;;5095521;28;20434;-71
2023/01/18 12:48:24;;;;;;;2.90;2.10;;;;;;;;;;5095084;28;20467;-71
2023/01/18 12:50:55;;;;;;;3.10;1.70;;;;;;;;;;5094735;28;20482;-71
2023/01/18 12:53:25;;;;;;;2.80;2.17;;;;;;;;;;5095245;28;20455;-71
2023/01/18 12:55:54;;;;;;;5.47;2.40;;;;;;;;;;5095276;28;20908;-71
2023/01/18 12:58:23;;;;;;;2.90;1.90;;;;;;;;;;5094950;28;20499;-71
2023/01/18 13:00:52;;;;;;;3.93;2.00;;;;;;;;;;5094860;28;20454;-71
2023/01/18 13:03:22;;;;;;;3.27;2.00;;;;;;;;;;5095104;28;20828;-71
2023/01/18 13:05:52;;;;;;;2.57;1.70;;;;;;;;;;5095165;28;20462;-71
2023/01/18 13:08:23;;;;;;;2.80;2.20;;;;;;;;;;5094719;28;20471;-70
2023/01/18 13:10:50;;;;;;;3.07;1.90;;;;;;;;;;5094681;28;20916;-71
2023/01/18 13:13:20;;;;;;;2.47;2.10;;;;;;;;;;5094648;28;20459;-71
2023/01/18 13:15:49;;;;;;;2.20;1.97;;;;;;;;;;5094865;28;20816;-71
2023/01/18 13:18:21;;;;;;;3.60;2.27;;;;;;;;;;5094791;28;21010;-71
2023/01/18 13:21:02;;;;;;;3.40;2.40;;;;;;;;;;5094831;28;20430;-71
2023/01/18 13:23:32;;;;;;;2.90;2.10;;;;;;;;;;5094544;28;20434;-71
2023/01/18 13:26:05;;;;;;;3.10;2.37;;;;;;;;;;5094478;28;20435;-71
2023/01/18 13:28:32;;;;;;;3.57;2.40;;;;;;;;;;5094662;28;20478;-71
2023/01/18 13:31:03;;;;;;;5.67;3.33;;;;;;;;;;5094588;28;20482;-71
2023/01/18 13:33:31;;;;;;;3.00;2.10;;;;;;;;;;5094563;28;20546;-71
2023/01/18 13:36:03;;;;;;;3.40;2.13;;;;;;;;;;5094498;28;20458;-71
2023/01/18 13:38:35;;;;;;;4.23;1.97;;;;;;;;;;5093972;28;20467;-71
2023/01/18 13:41:04;;;;;;;1.40;1.10;;;;;;;;;;5094522;28;20836;-71
2023/01/18 13:43:46;;;;;;;1.83;1.53;;;;;;;;;;5094113;28;20469;-71
2023/01/18 13:46:19;;;;;;;1.80;1.43;;;;;;;;;;5093905;28;20482;-71
2023/01/18 13:48:49;;;;;;;2.20;1.50;;;;;;;;;;5094305;28;20907;-71
2023/01/18 13:51:34;;;;;;;1.80;1.40;;;;;;;;;;5093435;28;20974;-71
2023/01/18 13:54:03;;;;;;;1.60;1.30;;;;;;;;;;5093842;28;20453;-71
2023/01/18 13:56:31;;;;;;;2.97;2.00;;;;;;;;;;5094128;28;20451;-71
2023/01/18 13:59:00;;;;;;;4.30;1.67;;;;;;;;;;5093784;28;20477;-71
2023/01/18 14:01:31;;;;;;;1.97;1.77;;;;;;;;;;5093706;28;20454;-70
2023/01/18 14:03:59;;;;;;;4.13;2.47;;;;;;;;;;5094107;28;20431;-71
2023/01/18 14:06:28;;;;;;;3.90;2.00;;;;;;;;;;5093983;28;20446;-71
2023/01/18 14:08:56;;;;;;;2.37;1.83;;;;;;;;;;5093475;28;20836;-71
2023/01/18 14:11:26;;;;;;;2.97;1.60;;;;;;;;;;5093637;28;20487;-71
2023/01/18 14:14:01;;;;;;;2.60;1.90;;;;;;;;;;5093747;28;20454;-70
2023/01/18 14:16:30;;;;;;;2.60;2.20;;;;;;;;;;5093233;28;20812;-71
2023/01/18 14:18:59;;;;;;;2.30;2.10;;;;;;;;;;5093740;28;20466;-71
2023/01/18 14:21:28;;;;;;;2.90;2.00;;;;;;;;;;5093740;28;20451;-71
2023/01/18 14:24:04;;;;;;;15.03;10.57;;;;;;;;;;5093777;28;20730;-71
2023/01/18 14:26:35;;;;;;;3.87;3.00;;;;;;;;;;5093391;28;20434;-71
2023/01/18 14:29:03;;;;;;;2.67;2.40;;;;;;;;;;5093639;28;20466;-72
2023/01/18 14:31:33;;;;;;;2.70;2.03;;;;;;;;;;5093416;28;20479;-71
2023/01/18 14:34:21;;;;;;;2.40;2.07;;;;;;;;;;5093341;28;20438;-71
2023/01/18 14:36:48;;;;;;;4.47;2.60;;;;;;;;;;5093153;28;20988;-71
2023/01/18 14:39:16;;;;;;;3.80;2.83;;;;;;;;;;5093411;28;20474;-71
2023/01/18 14:41:46;;;;;;;4.60;2.57;;;;;;;;;;5093304;28;20446;-71
2023/01/18 14:44:17;;;;;;;5.53;3.20;;;;;;;;;;5093011;28;20970;-71
2023/01/18 14:46:48;;;;;;;5.90;3.20;;;;;;;;;;5093488;28;20450;-71
2023/01/18 14:49:16;;;;;;;8.53;6.03;;;;;;;;;;5093364;28;20463;-71
2023/01/18 14:51:48;;;;;;;11.90;6.10;;;;;;;;;;5093298;28;20490;-71
2023/01/18 14:54:17;;;;;;;4.17;3.47;;;;;;;;;;5093394;28;20936;-71
2023/01/18 14:56:45;;;;;;;3.30;2.97;;;;;;;;;;5093339;28;20538;-71
2023/01/18 14:59:19;;;;;;;3.30;3.00;;;;;;;;;;5093189;28;20477;-71
2023/01/18 15:01:51;;;;;;;5.97;3.70;;;;;;;;;;5093065;28;20427;-71
2023/01/18 15:04:19;;;;;;;3.80;3.20;;;;;;;;;;5096820;28;20465;-71
2023/01/18 15:06:48;;;;;;;2.67;2.43;;;;;;;;;;5097408;28;20450;-71
2023/01/18 15:09:16;;;;;;;4.20;3.03;;;;;;;;;;5097242;28;20506;-70
2023/01/18 15:11:43;;;;;;;3.10;2.80;;;;;;;;;;5096968;28;20482;-71
2023/01/18 15:14:16;;;;;;;3.33;2.57;;;;;;;;;;5095965;28;20950;-71
2023/01/18 15:16:44;;;;;;;3.47;3.00;;;;;;;;;;5094985;28;20919;-71
2023/01/18 15:19:15;;;;;;;7.17;5.20;;;;;;;;;;5095625;28;20466;-71
2023/01/18 15:21:42;;;;;;;8.57;5.20;;;;;;;;;;5095569;28;20435;-71
2023/01/18 15:24:13;;;;;;;7.07;4.23;;;;;;;;;;5095821;28;20454;-71